createdAt,value
2018-02-20T00:01:33.070Z,73.87
2018-02-20T00:04:01.465Z,84.70
2018-02-20T00:06:30.742Z,81.57
2018-02-20T00:08:59.142Z,79.33
2018-02-20T00:11:27.793Z,75.03
2018-02-20T00:13:56.382Z,68.90
2018-02-20T00:16:25.798Z,80.10
2018-02-20T00:18:54.197Z,83.23
2018-02-20T00:21:22.854Z,71.12
2018-02-20T00:23:51.525Z,80.93
2018-02-20T00:26:20.093Z,77.27
2018-02-20T00:28:48.486Z,71.27
2018-02-20T00:31:16.873Z,84.53
2018-02-20T00:33:45.575Z,86.17
2018-02-20T00:36:13.975Z,76.03
2018-02-20T00:38:42.671Z,76.37
2018-02-20T00:41:11.299Z,85.03
2018-02-20T00:43:39.814Z,84.70
2018-02-20T00:46:08.151Z,69.97
2018-02-20T00:48:37.570Z,78.70
2018-02-20T00:51:06.214Z,73.50
2018-02-20T00:53:34.887Z,83.90
2018-02-20T00:56:03.898Z,77.07
2018-02-20T00:58:33.327Z,85.85
2018-02-20T01:01:02.008Z,76.43
2018-02-20T01:03:30.498Z,71.97
2018-02-20T01:05:59.155Z,81.80
2018-02-20T01:08:28.583Z,76.63
2018-02-20T01:10:56.986Z,75.87
2018-02-20T01:13:25.342Z,77.70
2018-02-20T01:15:55.471Z,74.60
2018-02-20T01:18:24.050Z,73.87
2018-02-20T01:20:52.274Z,76.63
2018-02-20T01:23:20.652Z,77.33
2018-02-20T01:25:49.038Z,80.50
2018-02-20T01:28:18.266Z,71.70
2018-02-20T01:30:46.889Z,71.87
2018-02-20T01:33:16.062Z,84.53
2018-02-20T01:35:44.727Z,67.10
2018-02-20T01:38:13.213Z,78.10
2018-02-20T01:40:41.881Z,73.00
2018-02-20T01:43:10.307Z,80.60
2018-02-20T01:45:38.890Z,75.70
2018-02-20T01:48:07.437Z,73.60
2018-02-20T01:50:35.831Z,81.63
2018-02-20T01:53:04.485Z,66.03
2018-02-20T01:55:32.882Z,75.80
2018-02-20T01:58:01.530Z,68.32
2018-02-20T02:00:29.918Z,65.93
2018-02-20T02:02:58.310Z,73.23
2018-02-20T02:05:26.694Z,66.73
2018-02-20T02:07:55.477Z,68.50
2018-02-20T02:10:24.122Z,63.60
2018-02-20T02:12:52.863Z,58.72
2018-02-20T02:15:21.518Z,64.65
2018-02-20T02:17:50.148Z,73.27
2018-02-20T02:20:18.818Z,66.80
2018-02-20T02:22:47.422Z,60.57
2018-02-20T02:25:15.808Z,62.20
2018-02-20T02:27:44.378Z,71.60
2018-02-20T02:30:12.758Z,62.90
2018-02-20T02:32:41.317Z,58.53
2018-02-20T02:35:10.001Z,72.43
2018-02-20T02:37:38.657Z,59.23
2018-02-20T02:40:08.080Z,52.00
2018-02-20T02:42:36.478Z,56.20
2018-02-20T02:45:05.132Z,56.45
2018-02-20T02:47:33.529Z,58.20
2018-02-20T02:50:01.916Z,55.80
2018-02-20T02:52:30.659Z,63.43
2018-02-20T02:54:59.670Z,55.30
2018-02-20T02:57:28.058Z,53.97
2018-02-20T02:59:58.585Z,62.40
2018-02-20T03:02:26.975Z,66.30
2018-02-20T03:04:55.480Z,65.37
2018-02-20T03:07:23.911Z,66.07
2018-02-20T03:09:52.287Z,61.20
2018-02-20T03:12:21.743Z,59.72
2018-02-20T03:14:50.138Z,64.15
2018-02-20T03:17:18.728Z,65.47
2018-02-20T03:19:47.386Z,68.10
2018-02-20T03:22:15.826Z,67.57
2018-02-20T03:24:44.213Z,65.87
2018-02-20T03:27:12.602Z,70.17
2018-02-20T03:29:41.002Z,73.17
2018-02-20T03:32:09.670Z,64.78
2018-02-20T03:34:38.162Z,68.57
2018-02-20T03:37:06.802Z,66.43
2018-02-20T03:39:35.224Z,67.67
2018-02-20T03:42:03.661Z,66.23
2018-02-20T03:44:32.323Z,73.25
2018-02-20T03:47:01.746Z,74.22
2018-02-20T03:49:30.971Z,73.10
2018-02-20T03:51:59.567Z,72.33
2018-02-20T03:54:28.026Z,65.97
2018-02-20T03:56:56.626Z,79.00
2018-02-20T03:59:25.357Z,74.50
2018-02-20T04:01:54.780Z,79.20
2018-02-20T04:04:23.443Z,75.30
2018-02-20T04:06:51.827Z,70.63
2018-02-20T04:09:20.220Z,76.93
2018-02-20T04:11:49.126Z,70.93
2018-02-20T04:14:17.567Z,88.37
2018-02-20T04:16:46.150Z,81.90
2018-02-20T04:19:14.538Z,75.00
2018-02-20T04:21:44.160Z,69.07
2018-02-20T04:24:12.547Z,86.80
2018-02-20T04:26:41.210Z,74.62
2018-02-20T04:29:09.706Z,91.60
2018-02-20T04:31:39.118Z,87.50
2018-02-20T04:34:08.511Z,84.97
2018-02-20T04:36:37.194Z,87.18
2018-02-20T04:39:05.198Z,105.03
2018-02-20T04:41:34.367Z,94.03
2018-02-20T04:44:02.774Z,90.60
2018-02-20T04:46:31.934Z,88.30
2018-02-20T04:49:00.630Z,99.40
2018-02-20T04:51:29.018Z,88.67
2018-02-20T04:53:58.419Z,97.47
2018-02-20T04:56:26.890Z,92.40
2018-02-20T04:58:55.550Z,88.28
2018-02-20T05:01:24.226Z,89.97
2018-02-20T05:03:52.897Z,89.65
2018-02-20T05:06:21.618Z,75.57
2018-02-20T05:08:50.001Z,87.87
2018-02-20T05:11:18.406Z,82.73
2018-02-20T05:13:47.565Z,77.53
2018-02-20T05:16:16.225Z,86.68
2018-02-20T05:18:44.729Z,71.60
2018-02-20T05:21:13.405Z,73.20
2018-02-20T05:23:42.828Z,75.18
2018-02-20T05:26:11.213Z,74.27
2018-02-20T05:28:39.677Z,77.87
2018-02-20T05:31:08.065Z,84.27
2018-02-20T05:33:36.715Z,80.90
2018-02-20T05:36:06.141Z,81.68
2018-02-20T05:38:34.551Z,80.30
2018-02-20T05:41:02.980Z,73.00
2018-02-20T05:43:31.483Z,71.53
2018-02-20T05:46:00.140Z,83.10
2018-02-20T05:48:29.580Z,82.30
2018-02-20T05:50:58.235Z,83.53
2018-02-20T05:53:26.631Z,83.40
2018-02-20T05:55:55.283Z,76.07
2018-02-20T05:58:23.971Z,70.97
2018-02-20T06:00:52.382Z,77.80
2018-02-20T06:03:21.054Z,82.32
2018-02-20T06:05:49.722Z,73.20
2018-02-20T06:08:18.258Z,86.57
2018-02-20T06:10:46.910Z,80.53
2018-02-20T06:13:15.587Z,75.07
2018-02-20T06:15:43.964Z,74.73
2018-02-20T06:18:12.482Z,74.57
2018-02-20T06:20:41.028Z,73.07
2018-02-20T06:23:09.732Z,75.35
2018-02-20T06:25:39.358Z,80.97
2018-02-20T06:28:08.546Z,85.87
2018-02-20T06:30:37.209Z,65.50
2018-02-20T06:33:05.860Z,75.83
2018-02-20T06:35:35.329Z,83.07
2018-02-20T06:38:04.594Z,72.60
2018-02-20T06:40:32.995Z,76.57
2018-02-20T06:43:01.386Z,80.87
2018-02-20T06:45:29.973Z,79.63
2018-02-20T06:47:58.379Z,86.35
2018-02-20T06:50:26.781Z,79.63
2018-02-20T06:52:55.201Z,73.53
2018-02-20T06:55:23.663Z,75.83
2018-02-20T06:57:52.316Z,78.03
2018-02-20T07:00:21.743Z,80.07
2018-02-20T07:02:50.143Z,72.67
2018-02-20T07:05:18.719Z,88.63
2018-02-20T07:07:47.106Z,78.23
2018-02-20T07:10:15.779Z,88.87
2018-02-20T07:12:44.462Z,97.23
2018-02-20T07:15:12.866Z,71.47
2018-02-20T07:17:41.535Z,68.67
2018-02-20T07:20:10.502Z,76.00
2018-02-20T07:22:38.890Z,81.03
2018-02-20T07:25:07.274Z,75.10
2018-02-20T07:27:35.941Z,79.62
2018-02-20T07:30:03.670Z,77.53
2018-02-20T07:32:33.094Z,76.72
2018-02-20T07:35:01.549Z,74.00
2018-02-20T07:37:30.878Z,78.70
2018-02-20T07:39:59.418Z,68.13
2018-02-20T07:42:27.853Z,79.83
2018-02-20T07:44:56.241Z,87.30
2018-02-20T07:47:24.843Z,69.97
2018-02-20T07:49:53.990Z,76.23
2018-02-20T07:52:22.421Z,82.30
2018-02-20T07:54:51.569Z,78.30
2018-02-20T07:57:20.095Z,72.53
2018-02-20T07:59:48.561Z,81.67
2018-02-20T08:02:17.338Z,77.27
2018-02-20T08:04:46.081Z,74.70
2018-02-20T08:07:15.527Z,68.40
2018-02-20T08:09:44.677Z,61.10
2018-02-20T08:12:13.207Z,76.60
2018-02-20T08:14:41.881Z,70.28
2018-02-20T08:17:10.271Z,72.47
2018-02-20T08:19:38.655Z,65.63
2018-02-20T08:22:07.222Z,62.73
2018-02-20T08:24:35.886Z,60.40
2018-02-20T08:27:04.548Z,68.43
2018-02-20T08:29:33.978Z,65.55
2018-02-20T08:32:02.634Z,48.75
2018-02-20T08:34:31.035Z,48.47
2018-02-20T08:37:00.330Z,45.67
2018-02-20T08:39:28.729Z,37.97
2018-02-20T08:41:58.115Z,43.07
2018-02-20T08:44:26.526Z,37.20
2018-02-20T08:46:54.916Z,45.00
2018-02-20T08:49:23.586Z,49.50
2018-02-20T08:51:52.006Z,42.73
2018-02-20T08:54:20.553Z,43.07
2018-02-20T08:56:48.969Z,37.27
2018-02-20T08:59:17.414Z,44.07
2018-02-20T09:01:46.040Z,55.17
2018-02-20T09:04:14.741Z,55.83
2018-02-20T09:06:43.194Z,50.03
2018-02-20T09:09:11.905Z,47.87
2018-02-20T09:11:40.309Z,50.00
2018-02-20T09:14:09.050Z,49.67
2018-02-20T09:16:38.460Z,53.47
2018-02-20T09:19:07.907Z,60.58
2018-02-20T09:21:36.323Z,67.80
2018-02-20T09:24:04.756Z,70.47
2018-02-20T09:26:33.142Z,67.50
2018-02-20T09:29:01.794Z,73.93
2018-02-20T09:31:30.211Z,65.60
2018-02-20T09:33:59.266Z,62.62
2018-02-20T09:36:28.782Z,64.20
2018-02-20T09:38:57.171Z,75.17
2018-02-20T09:41:27.166Z,68.72
2018-02-20T09:43:55.551Z,69.50
2018-02-20T09:46:23.954Z,73.47
2018-02-20T09:48:52.594Z,70.17
2018-02-20T09:51:20.987Z,64.77
2018-02-20T09:53:49.376Z,66.33
2018-02-20T09:56:18.123Z,66.00
2018-02-20T09:58:46.552Z,69.07
2018-02-20T10:01:14.957Z,68.87
2018-02-20T10:03:44.111Z,59.20
2018-02-20T10:06:12.562Z,74.07
2018-02-20T10:08:42.150Z,56.55
2018-02-20T10:11:11.702Z,72.85
2018-02-20T10:13:41.190Z,54.70
2018-02-20T10:16:09.642Z,68.67
2018-02-20T10:18:39.065Z,56.30
2018-02-20T10:21:07.854Z,59.15
2018-02-20T10:23:37.274Z,51.40
2018-02-20T10:26:05.974Z,58.60
2018-02-20T10:28:34.642Z,49.77
2018-02-20T10:31:03.354Z,62.93
2018-02-20T10:33:32.800Z,50.37
2018-02-20T10:36:02.146Z,55.20
2018-02-20T10:41:04.198Z,46.60
2018-02-20T10:43:32.274Z,56.83
2018-02-20T10:46:00.714Z,54.23
2018-02-20T10:48:29.410Z,54.35
2018-02-20T10:50:57.866Z,49.77
2018-02-20T10:53:27.052Z,54.23
2018-02-20T10:55:55.734Z,46.75
2018-02-20T10:58:24.433Z,56.80
2018-02-20T11:00:53.117Z,54.50
2018-02-20T11:03:22.305Z,47.20
2018-02-20T11:05:51.647Z,58.30
2018-02-20T11:08:20.382Z,47.50
2018-02-20T11:10:48.841Z,43.83
2018-02-20T11:13:17.604Z,36.43
2018-02-20T11:15:46.943Z,49.63
2018-02-20T11:18:15.365Z,37.00
2018-02-20T11:20:44.809Z,36.30
2018-02-20T11:23:13.259Z,43.17
2018-02-20T11:25:41.683Z,42.42
2018-02-20T11:28:10.289Z,43.37
2018-02-20T11:30:38.968Z,42.60
2018-02-20T11:33:07.436Z,42.27
2018-02-20T11:35:35.844Z,45.90
2018-02-20T11:38:04.533Z,47.67
2018-02-20T11:40:32.946Z,48.00
2018-02-20T11:43:01.626Z,44.43
2018-02-20T11:45:30.114Z,41.83
2018-02-20T11:47:58.801Z,42.30
2018-02-20T11:50:27.210Z,39.13
2018-02-20T11:52:55.574Z,36.70
2018-02-20T11:55:24.246Z,37.23
2018-02-20T11:57:52.710Z,37.37
2018-02-20T12:00:21.114Z,41.33
2018-02-20T12:02:49.724Z,35.90
2018-02-20T12:05:18.197Z,44.60
2018-02-20T12:07:46.891Z,46.53
2018-02-20T12:10:15.489Z,45.37
2018-02-20T12:12:44.181Z,43.87
2018-02-20T12:15:13.632Z,47.13
2018-02-20T12:17:42.330Z,54.27
2018-02-20T12:20:11.730Z,47.13
2018-02-20T12:22:40.441Z,48.53
2018-02-20T12:25:08.937Z,40.20
2018-02-20T12:27:38.393Z,34.50
2018-02-20T12:30:07.086Z,40.23
2018-02-20T12:32:35.786Z,39.67
2018-02-20T12:35:04.469Z,42.13
2018-02-20T12:37:33.649Z,35.83
2018-02-20T12:40:02.341Z,36.78
2018-02-20T12:42:30.801Z,25.80
2018-02-20T12:44:59.217Z,43.57
2018-02-20T12:47:28.384Z,37.80
2018-02-20T12:49:57.462Z,38.28
2018-02-20T12:52:26.106Z,39.27
2018-02-20T12:54:54.792Z,35.92
2018-02-20T12:57:23.202Z,41.87
2018-02-20T12:59:51.915Z,40.20
2018-02-20T13:02:20.599Z,38.40
2018-02-20T13:04:49.033Z,37.73
2018-02-20T13:07:17.442Z,37.60
2018-02-20T13:09:46.330Z,42.97
2018-02-20T13:12:15.045Z,35.20
2018-02-20T13:14:43.695Z,34.57
2018-02-20T13:17:12.410Z,37.37
2018-02-20T13:19:41.591Z,26.67
2018-02-20T13:22:10.002Z,39.87
2018-02-20T13:24:38.444Z,31.57
2018-02-20T13:27:06.973Z,31.87
2018-02-20T13:29:35.058Z,36.83
2018-02-20T13:32:03.454Z,30.67
2018-02-20T13:34:32.695Z,30.90
2018-02-20T13:37:01.184Z,36.40
2018-02-20T13:39:29.930Z,36.23
2018-02-20T13:41:58.613Z,32.50
2018-02-20T13:44:27.326Z,47.40
2018-02-20T13:46:55.753Z,30.83
2018-02-20T13:49:24.161Z,26.53
2018-02-20T13:51:52.581Z,28.30
2018-02-20T13:54:21.257Z,25.88
2018-02-20T13:56:50.449Z,35.23
2018-02-20T13:59:20.945Z,28.77
2018-02-20T14:01:49.524Z,34.23
2018-02-20T14:04:18.604Z,31.92
2018-02-20T14:06:47.021Z,34.37
2018-02-20T14:09:15.710Z,36.35
2018-02-20T14:11:43.939Z,37.73
2018-02-20T14:14:12.721Z,34.75
2018-02-20T14:16:42.229Z,40.70
2018-02-20T14:19:10.641Z,38.20
2018-02-20T14:21:39.154Z,38.67
2018-02-20T14:24:07.811Z,43.80
2018-02-20T14:26:36.217Z,38.37
2018-02-20T14:29:05.699Z,40.90
2018-02-20T14:31:34.119Z,42.03
2018-02-20T14:34:02.803Z,40.73
2018-02-20T14:36:31.364Z,35.73
2018-02-20T14:38:59.862Z,36.77
2018-02-20T14:41:28.422Z,39.57
2018-02-20T14:43:57.618Z,30.13
2018-02-20T14:46:26.298Z,33.67
2018-02-20T14:48:55.486Z,38.17
2018-02-20T14:51:24.197Z,35.20
2018-02-20T14:53:52.894Z,38.00
2018-02-20T14:56:21.310Z,36.50
2018-02-20T14:58:50.003Z,33.77
2018-02-20T15:01:18.414Z,38.03
2018-02-20T15:03:47.594Z,40.00
2018-02-20T15:06:16.009Z,42.77
2018-02-20T15:08:44.502Z,39.07
2018-02-20T15:11:13.088Z,44.60
2018-02-20T15:13:41.516Z,52.57
2018-02-20T15:16:09.658Z,60.07
2018-02-20T15:18:38.079Z,59.60
2018-02-20T15:21:06.688Z,47.67
2018-02-20T15:23:35.341Z,58.03
2018-02-20T15:26:04.527Z,131.03
2018-02-20T15:28:33.025Z,81.73
2018-02-20T15:31:02.205Z,56.67
2018-02-20T15:33:30.893Z,67.78
2018-02-20T15:35:59.581Z,59.60
2018-02-20T15:38:27.993Z,67.13
2018-02-20T15:40:56.399Z,56.60
2018-02-20T15:43:24.949Z,57.93
2018-02-20T15:45:53.769Z,57.47
2018-02-20T15:48:23.237Z,51.80
2018-02-20T15:50:51.661Z,59.00
2018-02-20T15:53:20.068Z,50.63
2018-02-20T15:55:48.599Z,56.78
2018-02-20T15:58:18.046Z,66.43
2018-02-20T16:00:46.738Z,56.35
2018-02-20T16:03:15.238Z,55.70
2018-02-20T16:05:44.426Z,54.87
2018-02-20T16:08:12.861Z,51.80
2018-02-20T16:10:41.701Z,60.73
2018-02-20T16:13:10.374Z,57.00
2018-02-20T16:15:40.270Z,56.80
2018-02-20T16:18:09.454Z,52.60
2018-02-20T16:20:39.707Z,56.07
2018-02-20T16:23:09.203Z,58.43
2018-02-20T16:25:37.439Z,53.73
2018-02-20T16:28:05.852Z,47.53
2018-02-20T16:30:35.270Z,45.00
2018-02-20T16:33:04.122Z,35.60
2018-02-20T16:35:32.826Z,41.40
2018-02-20T16:38:01.317Z,46.90
2018-02-20T16:40:31.374Z,43.30
2018-02-20T16:42:59.778Z,45.20
2018-02-20T16:45:28.197Z,47.17
2018-02-20T16:47:56.900Z,40.35
2018-02-20T16:50:25.314Z,57.03
2018-02-20T16:52:53.906Z,62.97
2018-02-20T16:55:22.320Z,60.13
2018-02-20T16:57:51.013Z,56.70
2018-02-20T17:00:20.191Z,54.87
2018-02-20T17:02:48.619Z,47.60
2018-02-20T17:05:18.265Z,60.35
2018-02-20T17:07:46.629Z,68.78
2018-02-20T17:10:15.056Z,67.03
2018-02-20T17:12:44.561Z,69.97
2018-02-20T17:15:13.237Z,76.70
2018-02-20T17:17:42.466Z,61.13
2018-02-20T17:20:10.891Z,63.97
2018-02-20T17:22:39.306Z,77.00
2018-02-20T17:25:08.580Z,79.97
2018-02-20T17:27:37.434Z,67.87
2018-02-20T17:30:05.842Z,72.50
2018-02-20T17:32:34.371Z,72.45
2018-02-20T17:35:03.610Z,67.53
2018-02-20T17:37:33.211Z,63.23
2018-02-20T17:40:01.902Z,60.45
2018-02-20T17:42:30.678Z,65.30
2018-02-20T17:44:59.570Z,73.17
2018-02-20T17:47:28.006Z,66.80
2018-02-20T17:49:57.469Z,71.87
2018-02-20T17:52:25.971Z,85.87
2018-02-20T17:54:54.647Z,70.23
2018-02-20T17:57:23.836Z,67.00
2018-02-20T17:59:52.393Z,66.67
2018-02-20T18:02:21.095Z,75.60
2018-02-20T18:04:49.514Z,63.60
2018-02-20T18:07:18.994Z,71.07
2018-02-20T18:09:48.354Z,67.87
2018-02-20T18:12:17.066Z,65.23
2018-02-20T18:14:46.054Z,83.20
2018-02-20T18:17:14.749Z,81.03
2018-02-20T18:19:43.429Z,90.62
2018-02-20T18:22:12.125Z,88.22
2018-02-20T18:24:41.299Z,84.20
2018-02-20T18:27:09.383Z,90.07
2018-02-20T18:29:38.061Z,76.33
2018-02-20T18:32:06.659Z,92.30
2018-02-20T18:34:35.899Z,89.67
2018-02-20T18:37:04.340Z,85.20
2018-02-20T18:39:33.213Z,89.77
2018-02-20T18:42:01.620Z,91.87
2018-02-20T18:44:30.879Z,86.53
2018-02-20T18:46:59.289Z,88.43
2018-02-20T18:49:28.465Z,88.27
2018-02-20T18:51:56.886Z,82.80
2018-02-20T18:54:25.306Z,70.73
2018-02-20T18:56:53.990Z,75.70
2018-02-20T18:59:22.407Z,75.93
2018-02-20T19:01:51.090Z,78.90
2018-02-20T19:04:19.810Z,66.37
2018-02-20T19:06:48.046Z,74.82
2018-02-20T19:09:16.738Z,79.50
2018-02-20T19:11:45.363Z,74.30
2018-02-20T19:14:14.092Z,86.17
2018-02-20T19:16:42.796Z,87.43
2018-02-20T19:19:11.974Z,77.67
2018-02-20T19:21:40.669Z,77.40
2018-02-20T19:24:09.873Z,59.53
2018-02-20T19:26:38.633Z,80.20
2018-02-20T19:29:07.046Z,68.37
2018-02-20T19:31:35.474Z,81.73
2018-02-20T19:34:05.833Z,66.97
2018-02-20T19:36:34.382Z,71.83
2018-02-20T19:39:02.937Z,74.13
2018-02-20T19:41:32.407Z,74.00
2018-02-20T19:44:01.589Z,78.27
2018-02-20T19:46:30.882Z,74.90
2018-02-20T19:49:00.095Z,82.23
2018-02-20T19:51:29.340Z,69.50
2018-02-20T19:53:57.752Z,92.60
2018-02-20T19:56:26.205Z,90.40
2018-02-20T19:58:54.886Z,74.70
2018-02-20T20:01:23.593Z,82.37
2018-02-20T20:03:52.010Z,81.23
2018-02-20T20:06:20.435Z,85.03
2018-02-20T20:08:48.962Z,80.40
2018-02-20T20:11:17.498Z,80.30
2018-02-20T20:13:46.094Z,71.80
2018-02-20T20:16:14.518Z,70.80
2018-02-20T20:18:42.881Z,91.45
2018-02-20T20:21:11.601Z,86.87
2018-02-20T20:23:40.059Z,80.38
2018-02-20T20:26:08.807Z,70.03
2018-02-20T20:28:38.179Z,81.30
2018-02-20T20:31:06.607Z,86.00
2018-02-20T20:33:35.273Z,71.83
2018-02-20T20:36:03.967Z,84.43
2018-02-20T20:38:33.265Z,80.33
2018-02-20T20:41:01.662Z,89.43
2018-02-20T20:43:30.845Z,94.80
2018-02-20T20:45:59.251Z,83.13
2018-02-20T20:48:27.957Z,79.03
2018-02-20T20:50:57.399Z,80.33
2018-02-20T20:53:25.937Z,91.57
2018-02-20T20:55:54.346Z,88.63
2018-02-20T20:58:23.044Z,78.40
2018-02-20T21:00:51.727Z,91.12
2018-02-20T21:03:20.155Z,82.03
2018-02-20T21:05:48.566Z,76.97
2018-02-20T21:08:17.254Z,83.82
2018-02-20T21:10:45.707Z,88.33
2018-02-20T21:13:15.192Z,75.18
2018-02-20T21:15:43.794Z,86.00
2018-02-20T21:18:13.156Z,86.50
2018-02-20T21:20:42.330Z,83.97
2018-02-20T21:23:10.747Z,82.10
2018-02-20T21:25:39.377Z,75.20
2018-02-20T21:28:07.838Z,84.50
2018-02-20T21:30:36.247Z,84.03
2018-02-20T21:33:04.885Z,69.70
2018-02-20T21:35:33.302Z,81.87
2018-02-20T21:38:01.718Z,76.47
2018-02-20T21:40:30.403Z,67.25
2018-02-20T21:42:59.961Z,79.73
2018-02-20T21:45:28.729Z,78.90
2018-02-20T21:47:57.311Z,74.23
2018-02-20T21:50:25.972Z,83.00
2018-02-20T21:52:55.159Z,88.87
2018-02-20T21:55:24.345Z,85.97
2018-02-20T21:57:53.025Z,74.93
2018-02-20T22:00:21.465Z,77.90
2018-02-20T22:02:49.875Z,79.73
2018-02-20T22:05:19.315Z,73.80
2018-02-20T22:07:48.383Z,82.33
2018-02-20T22:10:17.627Z,100.60
2018-02-20T22:12:46.027Z,71.67
2018-02-20T22:15:15.351Z,72.80
2018-02-20T22:17:44.707Z,77.47
2018-02-20T22:20:14.155Z,77.17
2018-02-20T22:22:42.869Z,103.15
2018-02-20T22:25:11.305Z,74.03
2018-02-20T22:27:39.818Z,69.63
2018-02-20T22:30:08.538Z,69.18
2018-02-20T22:32:36.940Z,59.73
2018-02-20T22:35:05.638Z,69.60
2018-02-20T22:37:34.046Z,72.47
2018-02-20T22:40:03.555Z,89.83
2018-02-20T22:42:32.068Z,81.73
2018-02-20T22:45:01.530Z,80.65
2018-02-20T22:47:30.227Z,87.75
2018-02-20T22:49:58.648Z,90.47
2018-02-20T22:52:27.367Z,91.90
2018-02-20T22:54:56.229Z,104.13
2018-02-20T22:57:24.642Z,83.40
2018-02-20T22:59:53.830Z,102.70
2018-02-20T23:02:22.330Z,86.50
2018-02-20T23:04:51.030Z,85.32
2018-02-20T23:07:20.499Z,93.60
2018-02-20T23:09:49.196Z,88.00
2018-02-20T23:12:18.370Z,97.17
2018-02-20T23:14:46.787Z,82.77
2018-02-20T23:17:15.474Z,88.00
2018-02-20T23:19:43.895Z,89.07
2018-02-20T23:22:12.304Z,90.20
2018-02-20T23:24:40.765Z,97.07
2018-02-20T23:27:09.590Z,84.90
2018-02-20T23:29:38.333Z,84.93
2018-02-20T23:32:06.787Z,81.87
2018-02-20T23:34:35.965Z,71.03
2018-02-20T23:37:04.557Z,73.10
2018-02-20T23:39:33.396Z,86.33
2018-02-20T23:42:02.095Z,85.20
2018-02-20T23:44:30.504Z,90.00
2018-02-20T23:46:59.197Z,100.90
2018-02-20T23:49:27.875Z,86.93
2018-02-20T23:51:56.655Z,87.72
2018-02-20T23:54:25.135Z,87.33
2018-02-20T23:56:53.555Z,77.13
2018-02-20T23:59:21.962Z,77.05
